Time;durP1;ratioP1;P1;durP2;ratioP2;P2;SDS_P1;SDS_P2;PMS_P1;PMS_P2;Temp;Humidity;BMP_temperature;BMP_pressure;BME280_temperature;BME280_humidity;BME280_pressure;Samples;Min_cycle;Max_cycle;Signal;HPM_P1;HPM_P2
2022/08/05 00:00:20;;;;;;;4.50;4.10;;;31.60;41.60;;;;;;5026351;28;20190;-45
2022/08/05 00:02:47;;;;;;;5.40;5.00;;;31.40;41.90;;;;;;5024825;28;20203;-47
2022/08/05 00:05:12;;;;;;;5.17;4.77;;;31.20;42.30;;;;;;5022852;28;20201;-44
2022/08/05 00:07:38;;;;;;;7.00;4.80;;;31.20;42.50;;;;;;5027204;28;20451;-47
2022/08/05 00:10:04;;;;;;;5.13;4.73;;;31.10;42.70;;;;;;5024197;28;20264;-44
2022/08/05 00:12:30;;;;;;;5.10;4.70;;;31.10;42.70;;;;;;5025905;28;20276;-48
2022/08/05 00:14:56;;;;;;;4.97;4.67;;;31.00;42.80;;;;;;5027207;28;20530;-44
2022/08/05 00:17:21;;;;;;;5.03;4.40;;;31.00;42.80;;;;;;5023181;28;20200;-44
2022/08/05 00:19:47;;;;;;;4.70;4.40;;;31.00;43.10;;;;;;5025488;28;20194;-44
2022/08/05 00:22:12;;;;;;;4.30;4.00;;;30.90;43.20;;;;;;5025107;28;20240;-44
2022/08/05 00:24:39;;;;;;;5.20;4.67;;;30.80;43.40;;;;;;5029705;28;20295;-43
2022/08/05 00:27:04;;;;;;;5.30;4.90;;;30.40;44.40;;;;;;5018302;28;20234;-44
2022/08/05 00:29:30;;;;;;;4.93;4.40;;;30.20;44.90;;;;;;5018170;28;20685;-44
2022/08/05 00:31:56;;;;;;;4.73;4.43;;;30.40;44.60;;;;;;5025416;28;20206;-44
2022/08/05 00:34:22;;;;;;;5.00;4.60;;;30.50;44.20;;;;;;5024274;28;20193;-46
2022/08/05 00:36:47;;;;;;;4.87;4.47;;;30.60;44.00;;;;;;5022213;28;20193;-44
2022/08/05 00:39:13;;;;;;;4.83;4.50;;;30.80;43.80;;;;;;5028546;28;20573;-45
2022/08/05 00:41:39;;;;;;;5.60;5.17;;;30.80;43.60;;;;;;5028682;28;20220;-47
2022/08/05 00:44:04;;;;;;;5.23;4.73;;;30.80;43.60;;;;;;5024978;28;20196;-48
2022/08/05 00:46:30;;;;;;;4.77;4.27;;;30.80;43.70;;;;;;5024430;28;20205;-48
2022/08/05 00:48:56;;;;;;;5.20;4.70;;;30.70;43.60;;;;;;5024934;28;20604;-46
2022/08/05 00:51:22;;;;;;;4.60;4.30;;;30.60;43.80;;;;;;5019997;28;20247;-46
2022/08/05 00:53:48;;;;;;;7.50;4.47;;;30.60;43.80;;;;;;5023175;28;20303;-48
2022/08/05 00:56:16;;;;;;;4.47;4.20;;;30.60;43.80;;;;;;5024630;28;20562;-45
2022/08/05 00:58:42;;;;;;;5.00;4.60;;;30.60;43.60;;;;;;5020574;28;20899;-43
2022/08/05 01:01:10;;;;;;;5.30;4.90;;;30.70;43.50;;;;;;5019951;28;20531;-43
2022/08/05 01:03:37;;;;;;;6.40;4.40;;;30.70;43.30;;;;;;5023827;28;20197;-44
2022/08/05 01:06:03;;;;;;;5.77;4.27;;;30.60;43.90;;;;;;5028802;28;20491;-44
2022/08/05 01:08:29;;;;;;;5.00;4.60;;;30.40;44.40;;;;;;5027243;28;20480;-44
2022/08/05 01:10:59;;;;;;;5.50;5.00;;;30.30;44.50;;;;;;5023217;28;20201;-44
2022/08/05 01:14:03;;;;;;;4.77;4.47;;;30.40;44.50;;;;;;5024092;28;20280;-44
2022/08/05 01:16:47;;;;;;;4.60;4.30;;;30.40;44.20;;;;;;5022425;28;20443;-47
2022/08/05 01:19:44;;;;;;;4.90;4.40;;;30.50;44.40;;;;;;5027373;28;20459;-43
2022/08/05 01:22:51;;;;;;;4.23;3.97;;;30.50;44.30;;;;;;4999607;28;20455;-44
2022/08/05 01:25:35;;;;;;;5.00;4.67;;;30.50;44.40;;;;;;5021515;28;20827;-45
2022/08/05 01:28:31;;;;;;;5.13;4.73;;;30.40;44.40;;;;;;5024997;28;20490;-47
2022/08/05 01:31:14;;;;;;;5.70;5.20;;;30.50;44.20;;;;;;5019424;28;20464;-47
2022/08/05 01:33:53;;;;;;;5.00;4.60;;;30.50;44.20;;;;;;5015252;28;20455;-44
2022/08/05 01:36:22;;;;;;;4.60;4.20;;;30.60;44.00;;;;;;5023817;28;20447;-48
2022/08/05 01:38:49;;;;;;;5.37;5.00;;;30.60;43.80;;;;;;5019811;28;20451;-48
2022/08/05 01:41:19;;;;;;;8.00;5.40;;;30.60;43.40;;;;;;5014430;28;20473;-46
2022/08/05 01:43:47;;;;;;;6.40;4.97;;;30.70;43.10;;;;;;5024935;28;20460;-47
2022/08/05 01:46:13;;;;;;;5.00;4.60;;;30.70;42.60;;;;;;5026136;28;20440;-46
2022/08/05 01:48:40;;;;;;;6.33;4.33;;;30.70;42.10;;;;;;5024409;28;20901;-48
2022/08/05 01:51:06;;;;;;;5.10;4.67;;;30.70;41.70;;;;;;5026587;28;20447;-47
2022/08/05 01:53:35;;;;;;;5.77;4.67;;;30.70;41.60;;;;;;5024958;28;20471;-45
2022/08/05 01:56:03;;;;;;;7.03;4.50;;;30.70;41.00;;;;;;5022079;28;20456;-44
2022/08/05 01:58:30;;;;;;;4.60;4.20;;;30.70;40.60;;;;;;5020948;28;20486;-46
2022/08/05 02:00:58;;;;;;;5.43;3.80;;;30.60;40.30;;;;;;5025232;28;20507;-47
2022/08/05 02:03:37;;;;;;;5.10;4.60;;;30.60;40.20;;;;;;5023043;28;20626;-45
2022/08/05 02:06:04;;;;;;;5.50;3.30;;;30.60;40.10;;;;;;5016065;28;20513;-44
2022/08/05 02:08:31;;;;;;;4.30;4.00;;;30.60;40.10;;;;;;5014510;28;20472;-47
2022/08/05 02:11:03;;;;;;;5.07;4.20;;;30.60;40.10;;;;;;5021742;28;20470;-48
2022/08/05 02:13:37;;;;;;;3.90;3.60;;;30.60;39.90;;;;;;5016216;28;20448;-47
2022/08/05 02:16:28;;;;;;;4.03;3.63;;;30.70;39.80;;;;;;5022983;28;20449;-46
2022/08/05 02:18:56;;;;;;;4.60;4.20;;;30.70;39.90;;;;;;5020434;28;20463;-47
2022/08/05 02:21:27;;;;;;;5.00;4.10;;;30.70;39.90;;;;;;5023668;28;20448;-48
2022/08/05 02:23:58;;;;;;;4.50;4.10;;;30.70;39.80;;;;;;5022320;28;20443;-46
2022/08/05 02:26:30;;;;;;;3.70;3.40;;;30.70;39.80;;;;;;5026670;28;20859;-45
2022/08/05 02:28:56;;;;;;;4.80;4.30;;;30.70;39.70;;;;;;5025117;28;20934;-46
2022/08/05 02:31:26;;;;;;;5.50;3.97;;;30.70;39.80;;;;;;5027729;28;20939;-48
2022/08/05 02:33:56;;;;;;;5.00;3.47;;;30.70;39.80;;;;;;5024925;28;20456;-48
2022/08/05 02:36:24;;;;;;;4.23;3.93;;;30.70;39.90;;;;;;5022287;28;20770;-47
2022/08/05 02:38:53;;;;;;;4.57;3.63;;;30.60;40.10;;;;;;5022512;28;20855;-47
2022/08/05 02:41:21;;;;;;;3.90;3.40;;;30.60;40.10;;;;;;5023186;28;20455;-48
2022/08/05 02:43:48;;;;;;;5.13;4.00;;;30.60;40.20;;;;;;5024712;28;20494;-45
2022/08/05 02:46:16;;;;;;;3.90;3.60;;;30.60;40.30;;;;;;5027498;28;20923;-48
2022/08/05 02:48:43;;;;;;;6.10;3.53;;;30.60;40.40;;;;;;5024283;28;20476;-46
2022/08/05 02:51:11;;;;;;;3.97;3.60;;;30.60;40.60;;;;;;5020691;28;20537;-44
2022/08/05 02:53:38;;;;;;;4.10;3.57;;;30.60;40.80;;;;;;5026885;28;20472;-48
2022/08/05 02:56:05;;;;;;;4.30;4.00;;;30.60;40.80;;;;;;5015463;28;20463;-44
2022/08/05 02:58:32;;;;;;;4.23;3.93;;;30.60;40.70;;;;;;5018050;28;20448;-48
2022/08/05 03:01:02;;;;;;;7.00;3.90;;;30.70;40.80;;;;;;5026582;28;20527;-44
2022/08/05 03:03:29;;;;;;;4.33;3.40;;;30.60;41.00;;;;;;5019610;28;20448;-47
2022/08/05 03:05:56;;;;;;;5.80;3.60;;;30.60;41.00;;;;;;5018756;28;20480;-44
2022/08/05 03:08:23;;;;;;;4.87;4.13;;;30.60;41.20;;;;;;5020625;28;20950;-48
2022/08/05 03:10:49;;;;;;;4.87;3.47;;;30.60;41.30;;;;;;5016964;28;20571;-43
2022/08/05 03:13:16;;;;;;;4.10;3.33;;;30.60;41.50;;;;;;5020188;28;20448;-44
2022/08/05 03:15:46;;;;;;;4.63;3.27;;;30.60;41.50;;;;;;5021176;28;20291;-49
2022/08/05 03:18:12;;;;;;;5.23;3.50;;;30.60;41.50;;;;;;5021783;28;20446;-44
2022/08/05 03:20:38;;;;;;;7.20;3.53;;;30.60;41.50;;;;;;5023330;28;20463;-47
2022/08/05 03:23:06;;;;;;;9.33;3.87;;;30.60;41.50;;;;;;5021033;28;20458;-48
2022/08/05 03:25:34;;;;;;;7.40;4.17;;;30.60;41.50;;;;;;5017564;28;20455;-45
2022/08/05 03:28:01;;;;;;;4.27;3.43;;;30.60;41.70;;;;;;5023540;28;20454;-46
2022/08/05 03:30:31;;;;;;;4.97;3.50;;;30.50;41.80;;;;;;5024432;28;20499;-47
2022/08/05 03:33:01;;;;;;;4.33;3.03;;;30.50;41.90;;;;;;5022590;28;20973;-47
2022/08/05 03:35:28;;;;;;;3.93;3.60;;;30.50;42.00;;;;;;5020427;28;22446;-47
2022/08/05 03:37:57;;;;;;;3.50;3.20;;;30.40;42.00;;;;;;5023925;28;20874;-44
2022/08/05 03:40:23;;;;;;;5.33;3.47;;;30.50;42.30;;;;;;5023040;28;20447;-45
2022/08/05 03:42:49;;;;;;;3.53;3.23;;;30.40;42.60;;;;;;5026636;28;20492;-48
2022/08/05 03:45:14;;;;;;;7.63;3.80;;;30.40;42.70;;;;;;5023367;28;20464;-44
2022/08/05 03:47:40;;;;;;;6.33;4.00;;;30.40;42.70;;;;;;5015302;28;20220;-45
2022/08/05 03:50:06;;;;;;;5.40;4.17;;;30.30;42.70;;;;;;5020897;28;20769;-45
2022/08/05 03:52:36;;;;;;;4.80;4.00;;;30.30;42.80;;;;;;4992940;28;20236;-45
2022/08/05 03:55:09;;;;;;;3.60;3.30;;;30.20;43.00;;;;;;5022611;28;20447;-46
2022/08/05 03:57:36;;;;;;;3.53;3.20;;;30.20;43.20;;;;;;5025544;28;20455;-45
2022/08/05 04:00:06;;;;;;;4.90;3.97;;;30.10;43.30;;;;;;5018027;28;20477;-45
2022/08/05 04:02:35;;;;;;;4.80;4.20;;;30.00;43.50;;;;;;5021323;28;20505;-45
2022/08/05 04:05:01;;;;;;;7.17;3.77;;;30.00;43.60;;;;;;5022738;28;20538;-45
2022/08/05 04:07:28;;;;;;;5.87;4.37;;;30.00;43.70;;;;;;5027508;28;20880;-45
2022/08/05 04:09:54;;;;;;;4.83;4.00;;;30.00;43.60;;;;;;5026954;28;20836;-46
2022/08/05 04:12:20;;;;;;;3.93;3.50;;;30.00;43.80;;;;;;5028387;28;20440;-45
2022/08/05 04:14:46;;;;;;;9.03;4.10;;;29.90;43.90;;;;;;5019071;28;20445;-47
2022/08/05 04:17:12;;;;;;;5.17;3.30;;;29.90;43.80;;;;;;5029463;28;20840;-45
2022/08/05 04:19:42;;;;;;;5.23;4.00;;;29.80;44.10;;;;;;5027495;28;20527;-45
2022/08/05 04:22:08;;;;;;;4.97;3.87;;;29.80;44.00;;;;;;5019367;28;20541;-46
2022/08/05 04:24:34;;;;;;;5.37;3.97;;;29.80;44.00;;;;;;5028129;28;20448;-48
2022/08/05 04:26:59;;;;;;;7.20;4.07;;;29.80;44.00;;;;;;5025971;28;20700;-45
2022/08/05 04:29:25;;;;;;;4.07;3.77;;;29.80;44.00;;;;;;5024944;28;20251;-46
2022/08/05 04:31:50;;;;;;;5.27;4.47;;;29.80;44.10;;;;;;5026200;28;20202;-45
2022/08/05 04:34:16;;;;;;;9.00;3.90;;;29.80;44.40;;;;;;5026669;28;20671;-49
2022/08/05 04:36:41;;;;;;;4.13;3.70;;;29.80;44.60;;;;;;5022450;28;20218;-45
2022/08/05 04:39:07;;;;;;;9.07;4.70;;;29.70;44.80;;;;;;5024050;28;20328;-45
2022/08/05 04:41:32;;;;;;;4.07;3.73;;;29.70;45.00;;;;;;5028364;28;20201;-45
2022/08/05 04:43:58;;;;;;;6.93;4.53;;;29.70;45.10;;;;;;5025805;28;20559;-47
2022/08/05 04:46:24;;;;;;;4.37;4.00;;;29.70;45.00;;;;;;5025072;28;20186;-45
2022/08/05 04:48:49;;;;;;;4.90;3.47;;;29.70;44.90;;;;;;5021626;28;20248;-49
2022/08/05 04:51:16;;;;;;;5.43;4.30;;;29.70;45.10;;;;;;5029168;28;20207;-45
2022/08/05 04:53:42;;;;;;;6.40;3.60;;;29.70;44.90;;;;;;5030166;28;20229;-45
2022/08/05 04:56:08;;;;;;;4.80;4.40;;;29.70;45.00;;;;;;5028851;28;20432;-48
2022/08/05 04:58:33;;;;;;;3.97;3.67;;;29.70;45.10;;;;;;5021723;28;20243;-46
2022/08/05 05:00:59;;;;;;;5.90;3.47;;;29.70;45.20;;;;;;5029089;28;20438;-45
2022/08/05 05:03:25;;;;;;;4.27;3.57;;;29.70;45.20;;;;;;5024501;28;21859;-45
2022/08/05 05:05:50;;;;;;;5.33;4.10;;;29.70;45.40;;;;;;5021800;28;20288;-45
2022/08/05 05:08:16;;;;;;;12.90;4.10;;;29.70;45.50;;;;;;5025839;28;20656;-46
2022/08/05 05:10:44;;;;;;;7.10;4.40;;;29.70;45.60;;;;;;5029938;28;20228;-46
2022/08/05 05:13:12;;;;;;;7.60;4.30;;;29.70;45.70;;;;;;5029542;28;20189;-45
2022/08/05 05:15:38;;;;;;;10.07;4.53;;;29.70;45.70;;;;;;5022875;28;20534;-47
2022/08/05 05:18:05;;;;;;;6.70;4.13;;;29.60;45.90;;;;;;5028251;28;20815;-45
2022/08/05 05:20:32;;;;;;;10.87;4.53;;;29.50;46.10;;;;;;5023417;28;20440;-45
2022/08/05 05:22:58;;;;;;;13.07;4.57;;;29.50;46.30;;;;;;5017599;28;20962;-45
2022/08/05 05:25:24;;;;;;;4.47;3.83;;;29.40;46.30;;;;;;5024926;28;20448;-45
2022/08/05 05:27:54;;;;;;;9.30;4.53;;;29.40;46.40;;;;;;5022330;28;20874;-49
2022/08/05 05:30:20;;;;;;;4.23;3.83;;;29.40;46.50;;;;;;5018421;28;20574;-48
2022/08/05 05:32:46;;;;;;;8.70;4.10;;;29.50;46.80;;;;;;5026661;28;21061;-46
2022/08/05 05:35:12;;;;;;;5.10;4.30;;;29.50;46.80;;;;;;5024770;28;20456;-45
2022/08/05 05:37:51;;;;;;;10.70;4.60;;;29.50;47.50;;;;;;5018533;28;20193;-45
2022/08/05 05:40:19;;;;;;;5.80;3.90;;;29.40;47.00;;;;;;5018735;28;20563;-47
2022/08/05 05:42:48;;;;;;;7.17;5.00;;;29.40;47.30;;;;;;5030113;28;20451;-45
2022/08/05 05:45:14;;;;;;;6.80;4.83;;;29.20;47.80;;;;;;5028980;28;20440;-45
2022/08/05 05:47:40;;;;;;;6.33;4.67;;;29.30;47.60;;;;;;5027572;28;20451;-45
2022/08/05 05:50:07;;;;;;;7.80;4.43;;;29.40;47.60;;;;;;5027084;28;20492;-45
2022/08/05 05:52:33;;;;;;;7.80;4.87;;;29.50;47.50;;;;;;5026518;28;20315;-46
2022/08/05 05:55:00;;;;;;;10.93;4.20;;;29.60;47.40;;;;;;5029826;28;20594;-45
2022/08/05 05:57:26;;;;;;;9.00;4.80;;;29.70;47.30;;;;;;5029068;28;21628;-45
2022/08/05 05:59:51;;;;;;;5.77;4.93;;;29.80;47.30;;;;;;5021175;28;20452;-45
2022/08/05 06:02:17;;;;;;;14.33;5.60;;;29.90;47.20;;;;;;5020774;28;20443;-45
2022/08/05 06:04:43;;;;;;;6.20;4.43;;;30.00;47.00;;;;;;5023984;28;20201;-46
2022/08/05 06:07:08;;;;;;;6.70;5.00;;;30.00;47.10;;;;;;5027135;28;22381;-45
2022/08/05 06:09:34;;;;;;;6.87;5.37;;;30.10;47.10;;;;;;5028701;28;20229;-45
2022/08/05 06:12:00;;;;;;;8.87;4.60;;;30.10;46.90;;;;;;5020296;28;20433;-45
2022/08/05 06:14:26;;;;;;;6.43;4.23;;;30.10;46.90;;;;;;5021019;28;20193;-45
2022/08/05 06:16:51;;;;;;;4.60;4.20;;;30.20;46.80;;;;;;5026556;28;20282;-46
2022/08/05 06:19:17;;;;;;;7.30;4.63;;;30.30;46.60;;;;;;5019419;28;20202;-47
2022/08/05 06:21:44;;;;;;;4.47;4.17;;;30.30;46.30;;;;;;5021841;28;20195;-50
2022/08/05 06:24:10;;;;;;;6.03;4.20;;;30.30;45.40;;;;;;5014765;28;20202;-49
2022/08/05 06:26:35;;;;;;;6.90;4.17;;;30.50;45.10;;;;;;5021540;28;20443;-50
2022/08/05 06:29:01;;;;;;;4.40;3.93;;;30.60;45.20;;;;;;5020406;28;20213;-50
2022/08/05 06:31:27;;;;;;;7.80;4.60;;;30.60;44.90;;;;;;5023246;28;20202;-49
2022/08/05 06:33:52;;;;;;;6.10;4.40;;;30.70;45.10;;;;;;5018964;28;20193;-45
2022/08/05 06:36:18;;;;;;;5.03;4.57;;;30.80;44.60;;;;;;5027908;28;20201;-50
2022/08/05 06:38:44;;;;;;;8.93;4.00;;;30.80;44.70;;;;;;5028881;28;20197;-46
2022/08/05 06:41:09;;;;;;;7.00;4.53;;;30.90;44.20;;;;;;5013902;28;20194;-46
2022/08/05 06:43:35;;;;;;;7.53;3.87;;;30.90;43.90;;;;;;5029253;28;20302;-49
2022/08/05 06:46:01;;;;;;;4.13;3.73;;;31.00;43.80;;;;;;5029690;28;20197;-50
2022/08/05 06:48:26;;;;;;;11.73;4.50;;;31.10;43.30;;;;;;5029273;28;20431;-50
2022/08/05 06:50:52;;;;;;;4.23;3.83;;;31.20;43.20;;;;;;5028552;28;20267;-51
2022/08/05 06:53:18;;;;;;;4.03;3.63;;;31.30;43.00;;;;;;5016507;28;20237;-49
2022/08/05 06:55:43;;;;;;;5.63;3.60;;;31.50;42.90;;;;;;5029473;28;20198;-49
2022/08/05 06:58:09;;;;;;;8.67;4.30;;;31.60;42.50;;;;;;5029777;28;20631;-50
2022/08/05 07:00:34;;;;;;;6.60;4.03;;;31.80;42.70;;;;;;5026189;28;20295;-50
2022/08/05 07:03:00;;;;;;;4.17;3.77;;;31.90;42.10;;;;;;5029939;28;20272;-49
2022/08/05 07:05:26;;;;;;;3.70;3.40;;;32.00;41.90;;;;;;5029624;28;20216;-49
2022/08/05 07:07:51;;;;;;;3.70;3.40;;;32.30;41.50;;;;;;5015515;28;20205;-50
2022/08/05 07:10:17;;;;;;;8.00;4.00;;;32.40;40.90;;;;;;5017203;28;20228;-49
2022/08/05 07:18:11;;;;;;;4.70;3.73;;;32.80;40.40;;;;;;5018565;28;20534;-48
2022/08/05 07:20:36;;;;;;;6.07;4.00;;;32.90;39.90;;;;;;5029813;28;20475;-50
2022/08/05 07:23:02;;;;;;;4.23;3.30;;;32.90;39.40;;;;;;5027851;28;20207;-49
2022/08/05 07:25:27;;;;;;;4.00;3.70;;;32.90;39.70;;;;;;5029425;28;20941;-50
2022/08/05 07:27:54;;;;;;;4.70;4.33;;;33.00;39.90;;;;;;5028036;28;20318;-49
2022/08/05 07:30:20;;;;;;;5.20;3.57;;;33.00;40.00;;;;;;5012083;28;20221;-50
2022/08/05 07:32:46;;;;;;;5.53;3.73;;;33.10;39.70;;;;;;5023517;28;20444;-49
2022/08/05 07:35:12;;;;;;;4.47;3.07;;;33.10;39.50;;;;;;5014547;28;20189;-50
2022/08/05 07:37:39;;;;;;;4.47;3.87;;;33.20;39.50;;;;;;5032494;28;20210;-48
2022/08/05 07:40:06;;;;;;;3.30;3.00;;;33.10;39.50;;;;;;5033388;28;20435;-50
2022/08/05 07:42:32;;;;;;;5.00;4.20;;;33.20;39.60;;;;;;5021390;28;20524;-50
2022/08/05 07:44:58;;;;;;;5.90;3.80;;;33.30;39.20;;;;;;5031646;28;21145;-49
2022/08/05 07:47:23;;;;;;;3.50;3.20;;;33.00;40.20;;;;;;5032299;28;20254;-50
2022/08/05 07:49:52;;;;;;;4.50;3.37;;;32.90;39.80;;;;;;5032946;28;20318;-50
2022/08/05 07:52:19;;;;;;;6.13;3.63;;;33.00;39.30;;;;;;5031800;28;20606;-50
2022/08/05 07:54:44;;;;;;;3.97;3.03;;;33.00;38.80;;;;;;5026719;28;20534;-46
2022/08/05 07:57:10;;;;;;;4.13;3.40;;;33.20;38.70;;;;;;5025601;28;20559;-50
2022/08/05 07:59:35;;;;;;;3.10;2.80;;;33.40;38.70;;;;;;5026094;28;20198;-49
2022/08/05 08:02:01;;;;;;;3.60;3.30;;;33.60;37.90;;;;;;5028234;28;20189;-50
2022/08/05 08:04:27;;;;;;;4.97;3.43;;;33.60;37.60;;;;;;5022934;28;20549;-47
2022/08/05 08:06:54;;;;;;;4.93;3.37;;;33.70;37.50;;;;;;5031503;28;20205;-48
2022/08/05 08:09:20;;;;;;;2.93;2.70;;;33.90;36.30;;;;;;5025849;28;20575;-50
2022/08/05 08:11:46;;;;;;;3.77;3.43;;;34.00;36.40;;;;;;5026024;28;21036;-47
2022/08/05 08:14:11;;;;;;;3.43;3.10;;;34.20;36.30;;;;;;5027665;28;20457;-48
2022/08/05 08:16:37;;;;;;;8.00;3.20;;;34.40;36.10;;;;;;5024745;28;20193;-48
2022/08/05 08:19:02;;;;;;;6.10;2.90;;;34.30;35.20;;;;;;5020331;28;20198;-50
2022/08/05 08:21:28;;;;;;;4.80;3.10;;;34.50;35.40;;;;;;5021626;28;20289;-50
2022/08/05 08:23:54;;;;;;;5.07;2.90;;;34.60;35.30;;;;;;5032793;28;20189;-47
2022/08/05 08:26:20;;;;;;;2.90;2.70;;;34.80;34.40;;;;;;5031719;28;20671;-46
2022/08/05 08:28:46;;;;;;;3.57;3.27;;;34.80;34.10;;;;;;5031300;28;20193;-51
2022/08/05 08:31:11;;;;;;;5.73;3.07;;;34.80;33.20;;;;;;5031607;28;20431;-51
2022/08/05 08:33:38;;;;;;;5.17;3.00;;;34.90;33.60;;;;;;5026892;28;20217;-47
2022/08/05 08:36:07;;;;;;;2.63;2.40;;;34.80;33.50;;;;;;5018616;28;20954;-50
2022/08/05 08:38:33;;;;;;;2.60;2.40;;;34.80;32.80;;;;;;5031069;28;20225;-47
2022/08/05 08:41:03;;;;;;;2.90;2.70;;;34.70;32.50;;;;;;5020751;28;20511;-48
2022/08/05 08:43:31;;;;;;;3.10;2.57;;;34.60;32.80;;;;;;5012989;28;20305;-48
2022/08/05 08:45:58;;;;;;;2.33;2.10;;;34.80;32.80;;;;;;5031669;28;20507;-47
2022/08/05 08:48:26;;;;;;;2.73;2.53;;;34.80;32.40;;;;;;5030335;28;20447;-46
2022/08/05 08:50:52;;;;;;;2.63;2.43;;;35.00;32.00;;;;;;5031408;28;20480;-49
2022/08/05 08:53:18;;;;;;;2.40;2.20;;;35.20;31.40;;;;;;5031967;28;20518;-46
2022/08/05 08:55:44;;;;;;;2.40;2.27;;;35.20;31.50;;;;;;5019443;28;20209;-47
2022/08/05 08:58:10;;;;;;;4.23;2.60;;;35.40;31.60;;;;;;5018623;28;20201;-50
2022/08/05 09:00:36;;;;;;;3.30;2.23;;;35.50;31.00;;;;;;5029067;28;20447;-46
2022/08/05 09:03:04;;;;;;;2.60;2.40;;;35.60;30.90;;;;;;5031435;28;20272;-48
2022/08/05 09:05:30;;;;;;;2.20;2.10;;;35.60;30.90;;;;;;5027443;28;20374;-46
2022/08/05 09:07:55;;;;;;;2.97;2.77;;;35.70;31.00;;;;;;5030358;28;20451;-49
2022/08/05 09:10:21;;;;;;;3.23;2.63;;;35.70;30.90;;;;;;5031881;28;20229;-47
2022/08/05 09:12:47;;;;;;;3.33;3.00;;;36.00;30.90;;;;;;5031553;28;20201;-47
2022/08/05 09:15:13;;;;;;;2.57;2.37;;;36.10;30.20;;;;;;5031375;28;20502;-50
2022/08/05 09:17:39;;;;;;;3.93;2.50;;;36.20;29.90;;;;;;5013730;28;20273;-47
2022/08/05 09:20:06;;;;;;;3.30;3.10;;;36.20;29.90;;;;;;5030954;28;20201;-49
2022/08/05 09:23:10;;;;;;;2.63;2.43;;;36.00;30.00;;;;;;5031279;28;20455;-46
2022/08/05 09:25:38;;;;;;;2.17;1.97;;;36.10;30.10;;;;;;5029409;28;20855;-46
2022/08/05 09:28:19;;;;;;;2.53;2.40;;;36.20;30.00;;;;;;5031175;28;20442;-46
2022/08/05 09:31:07;;;;;;;3.00;2.70;;;36.40;29.80;;;;;;5015623;28;20492;-50
2022/08/05 09:33:48;;;;;;;2.40;2.30;;;36.50;29.50;;;;;;5011735;28;20454;-50
2022/08/05 09:36:14;;;;;;;2.83;2.57;;;36.60;29.40;;;;;;5020070;28;20439;-48
2022/08/05 09:38:54;;;;;;;4.63;2.70;;;36.70;29.50;;;;;;5025759;28;20848;-46
2022/08/05 09:41:20;;;;;;;2.97;2.77;;;36.90;29.40;;;;;;5029811;28;20239;-46
2022/08/05 09:43:46;;;;;;;2.77;2.37;;;37.10;29.30;;;;;;5028068;28;20436;-49
2022/08/05 09:46:34;;;;;;;3.10;2.50;;;37.20;29.40;;;;;;5029485;28;20648;-46
2022/08/05 09:49:06;;;;;;;3.20;3.00;;;37.50;28.70;;;;;;5026131;28;20236;-46
2022/08/05 09:51:36;;;;;;;3.63;2.43;;;37.50;28.60;;;;;;5028650;28;20460;-45
2022/08/05 09:54:10;;;;;;;4.13;3.00;;;37.40;28.50;;;;;;5027961;28;20487;-46
2022/08/05 09:56:37;;;;;;;6.53;2.83;;;37.30;28.70;;;;;;5011906;28;20433;-46
2022/08/05 09:59:10;;;;;;;3.60;2.67;;;37.40;28.20;;;;;;5022959;28;20451;-46
2022/08/05 10:01:40;;;;;;;4.03;2.80;;;37.50;28.60;;;;;;5024985;28;20458;-47
2022/08/05 10:04:12;;;;;;;3.53;2.60;;;37.60;28.20;;;;;;5025380;28;21216;-47
2022/08/05 10:06:52;;;;;;;4.53;2.47;;;37.60;28.10;;;;;;5011725;28;20433;-46
2022/08/05 10:09:22;;;;;;;2.47;2.10;;;37.60;28.10;;;;;;5023446;28;20483;-46
2022/08/05 10:11:49;;;;;;;3.00;2.60;;;37.60;28.10;;;;;;5027989;28;20454;-46
2022/08/05 10:14:25;;;;;;;3.43;2.60;;;37.70;27.90;;;;;;5029147;28;21042;-46
2022/08/05 10:16:52;;;;;;;2.70;2.50;;;37.70;28.00;;;;;;5026550;28;20443;-46
2022/08/05 10:19:18;;;;;;;3.30;2.60;;;37.70;27.80;;;;;;5029213;28;20810;-45
2022/08/05 10:21:48;;;;;;;2.70;2.50;;;37.70;27.80;;;;;;5028875;28;20466;-46
2022/08/05 10:24:16;;;;;;;2.70;2.50;;;37.70;28.20;;;;;;5023065;28;20935;-47
2022/08/05 10:26:44;;;;;;;2.90;2.70;;;38.00;27.90;;;;;;5028953;28;20443;-48
2022/08/05 10:29:10;;;;;;;2.87;2.67;;;38.20;27.60;;;;;;5016504;28;20510;-46
2022/08/05 10:31:38;;;;;;;2.60;2.33;;;37.90;27.60;;;;;;5023712;28;20974;-46
2022/08/05 10:34:06;;;;;;;2.83;2.60;;;37.80;27.80;;;;;;5025840;28;20258;-46
2022/08/05 10:36:33;;;;;;;2.40;2.20;;;37.10;28.10;;;;;;5026134;28;20435;-48
2022/08/05 10:39:04;;;;;;;2.87;2.60;;;37.20;28.60;;;;;;5027692;28;20462;-50
2022/08/05 10:41:59;;;;;;;2.93;2.70;;;37.40;28.50;;;;;;5025606;28;20431;-51
2022/08/05 10:44:26;;;;;;;3.47;3.17;;;37.80;27.90;;;;;;5023414;28;20509;-49
2022/08/05 10:46:55;;;;;;;3.00;2.50;;;38.00;27.20;;;;;;5016537;28;20435;-49
2022/08/05 10:49:23;;;;;;;2.90;2.70;;;38.20;27.30;;;;;;5024495;28;20508;-47
2022/08/05 10:51:56;;;;;;;2.70;2.40;;;38.70;27.00;;;;;;5029801;28;20497;-47
2022/08/05 10:54:22;;;;;;;2.70;2.50;;;38.90;26.30;;;;;;5021381;28;20454;-50
2022/08/05 10:56:50;;;;;;;2.80;2.60;;;39.10;26.10;;;;;;5026219;28;20455;-47
2022/08/05 10:59:27;;;;;;;2.97;2.77;;;39.20;26.00;;;;;;5028428;28;20538;-49
2022/08/05 11:02:25;;;;;;;3.10;2.90;;;39.30;25.60;;;;;;5029116;28;20637;-49
2022/08/05 11:04:54;;;;;;;5.03;2.93;;;39.50;25.30;;;;;;4993788;28;20541;-49
2022/08/05 11:07:20;;;;;;;3.00;2.70;;;39.70;25.40;;;;;;5025615;28;20439;-49
2022/08/05 11:09:53;;;;;;;5.47;2.63;;;39.60;24.90;;;;;;5029120;28;20482;-49
2022/08/05 11:12:39;;;;;;;2.97;2.73;;;39.80;25.00;;;;;;5031734;28;20816;-50
2022/08/05 11:15:08;;;;;;;2.60;2.40;;;40.00;24.90;;;;;;5023947;28;20454;-50
2022/08/05 11:17:38;;;;;;;2.73;2.53;;;40.00;24.60;;;;;;5018180;28;20458;-47
2022/08/05 11:20:06;;;;;;;3.30;2.90;;;40.10;24.40;;;;;;5028239;28;20455;-50
2022/08/05 11:22:47;;;;;;;2.27;2.17;;;40.20;24.80;;;;;;5034494;28;20937;-48
2022/08/05 11:25:31;;;;;;;2.70;2.50;;;40.20;24.40;;;;;;5029410;28;20451;-48
2022/08/05 11:28:12;;;;;;;2.63;2.50;;;40.30;24.70;;;;;;5015017;28;20802;-51
2022/08/05 11:30:55;;;;;;;3.07;2.77;;;39.80;25.40;;;;;;5026407;28;20523;-50
2022/08/05 11:33:47;;;;;;;3.00;2.80;;;39.90;25.10;;;;;;5028390;28;20512;-46
2022/08/05 11:36:16;;;;;;;3.47;2.83;;;40.20;24.80;;;;;;5029571;28;20462;-49
2022/08/05 11:38:42;;;;;;;4.50;2.97;;;40.50;24.80;;;;;;5031908;28;20447;-50
2022/08/05 11:41:16;;;;;;;3.13;2.83;;;40.70;25.00;;;;;;5028988;28;20875;-51
2022/08/05 11:44:02;;;;;;;5.70;2.90;;;40.90;24.20;;;;;;5030668;28;20205;-47
2022/08/05 11:46:54;;;;;;;4.60;2.90;;;41.00;24.10;;;;;;5029209;28;20451;-46
2022/08/05 11:49:22;;;;;;;5.10;2.87;;;41.10;24.00;;;;;;5030809;28;20589;-47
2022/08/05 11:51:50;;;;;;;3.20;2.97;;;41.00;23.90;;;;;;5025432;28;20443;-48
2022/08/05 11:54:32;;;;;;;3.00;2.37;;;41.00;23.70;;;;;;5022752;28;20442;-50
2022/08/05 11:56:59;;;;;;;2.70;2.50;;;41.00;23.60;;;;;;5032738;28;20538;-46
2022/08/05 11:59:27;;;;;;;3.17;2.87;;;41.00;24.00;;;;;;5023770;28;20450;-46
2022/08/05 12:01:53;;;;;;;2.30;2.20;;;41.00;23.30;;;;;;5022338;28;20444;-46
2022/08/05 12:04:19;;;;;;;3.97;3.13;;;40.70;23.90;;;;;;5028311;28;20536;-47
2022/08/05 12:06:45;;;;;;;3.60;3.30;;;40.80;23.80;;;;;;5023360;28;20523;-49
2022/08/05 12:09:11;;;;;;;3.30;3.10;;;41.00;23.70;;;;;;5025782;28;20604;-47
2022/08/05 12:11:37;;;;;;;2.50;2.40;;;41.10;23.50;;;;;;5022966;28;20591;-46
2022/08/05 12:14:05;;;;;;;3.20;3.00;;;41.00;24.10;;;;;;5021943;28;20513;-47
2022/08/05 12:16:37;;;;;;;2.67;2.47;;;41.20;23.60;;;;;;5031447;28;20319;-48
2022/08/05 12:19:04;;;;;;;3.20;3.00;;;40.60;23.70;;;;;;5028307;28;20439;-51
2022/08/05 12:21:34;;;;;;;3.50;3.20;;;39.60;24.70;;;;;;5032654;28;20436;-51
2022/08/05 12:24:06;;;;;;;2.90;2.70;;;39.60;25.10;;;;;;5023944;28;20459;-52
2022/08/05 12:26:42;;;;;;;4.80;2.63;;;39.70;24.90;;;;;;5025847;28;20861;-52
2022/08/05 12:29:14;;;;;;;3.00;2.80;;;39.90;24.70;;;;;;5021117;28;20484;-47
2022/08/05 12:31:47;;;;;;;3.47;3.17;;;40.20;24.40;;;;;;5025400;28;21010;-51
2022/08/05 12:34:14;;;;;;;3.23;2.73;;;40.40;24.30;;;;;;5025018;28;20450;-51
2022/08/05 12:36:41;;;;;;;2.90;2.77;;;40.30;24.00;;;;;;5029498;28;20436;-49
2022/08/05 12:39:07;;;;;;;3.10;2.90;;;40.10;24.20;;;;;;5022678;28;20444;-51
2022/08/05 12:41:35;;;;;;;3.40;3.10;;;39.10;25.20;;;;;;5013551;28;20766;-52
2022/08/05 12:44:04;;;;;;;2.77;2.67;;;39.00;25.60;;;;;;5030770;28;20250;-51
2022/08/05 12:46:31;;;;;;;6.90;3.03;;;39.10;25.40;;;;;;5021303;28;20874;-51
2022/08/05 12:49:09;;;;;;;3.00;2.70;;;39.10;25.20;;;;;;5022673;28;20434;-52
2022/08/05 12:51:48;;;;;;;4.80;3.20;;;39.10;25.40;;;;;;5032916;28;20435;-50
2022/08/05 12:54:20;;;;;;;3.30;3.10;;;39.30;25.20;;;;;;5031440;28;20478;-51
2022/08/05 12:56:50;;;;;;;3.07;2.87;;;39.60;25.00;;;;;;5032571;28;20439;-52
2022/08/05 12:59:19;;;;;;;2.67;2.50;;;39.90;25.10;;;;;;5032059;28;20450;-50